sensor_id;sensor_type;location;lat;lon;timestamp;P1;durP1;ratioP1;P2;durP2;ratioP2
40827;SDS011;26549;50.918;5.338;2024-01-27T00:01:45;13.18;;;4.15;;
40827;SDS011;26549;50.918;5.338;2024-01-27T00:04:10;9.43;;;4.28;;
40827;SDS011;26549;50.918;5.338;2024-01-27T00:06:37;9.55;;;4.78;;
40827;SDS011;26549;50.918;5.338;2024-01-27T00:09:03;12.13;;;5.32;;
40827;SDS011;26549;50.918;5.338;2024-01-27T00:11:31;10.55;;;3.70;;
40827;SDS011;26549;50.918;5.338;2024-01-27T00:13:57;10.05;;;4.82;;
40827;SDS011;26549;50.918;5.338;2024-01-27T00:16:25;7.32;;;3.90;;
40827;SDS011;26549;50.918;5.338;2024-01-27T00:18:51;11.60;;;4.88;;
40827;SDS011;26549;50.918;5.338;2024-01-27T00:21:17;10.43;;;4.18;;
40827;SDS011;26549;50.918;5.338;2024-01-27T00:23:43;11.88;;;4.07;;
40827;SDS011;26549;50.918;5.338;2024-01-27T00:26:09;14.48;;;3.17;;
40827;SDS011;26549;50.918;5.338;2024-01-27T00:28:38;14.63;;;3.30;;
40827;SDS011;26549;50.918;5.338;2024-01-27T00:31:04;10.07;;;3.10;;
40827;SDS011;26549;50.918;5.338;2024-01-27T00:33:31;10.43;;;3.13;;
40827;SDS011;26549;50.918;5.338;2024-01-27T00:35:58;9.27;;;3.42;;
40827;SDS011;26549;50.918;5.338;2024-01-27T00:38:23;16.88;;;4.50;;
40827;SDS011;26549;50.918;5.338;2024-01-27T00:40:49;10.80;;;3.95;;
40827;SDS011;26549;50.918;5.338;2024-01-27T00:43:16;13.02;;;3.30;;
40827;SDS011;26549;50.918;5.338;2024-01-27T00:45:41;11.70;;;3.75;;
40827;SDS011;26549;50.918;5.338;2024-01-27T00:48:08;10.38;;;3.60;;
40827;SDS011;26549;50.918;5.338;2024-01-27T00:50:35;8.88;;;4.15;;
40827;SDS011;26549;50.918;5.338;2024-01-27T00:53:01;9.55;;;3.50;;
40827;SDS011;26549;50.918;5.338;2024-01-27T00:55:27;3.92;;;2.90;;
40827;SDS011;26549;50.918;5.338;2024-01-27T00:57:54;11.25;;;3.42;;
40827;SDS011;26549;50.918;5.338;2024-01-27T01:00:20;10.18;;;2.70;;
40827;SDS011;26549;50.918;5.338;2024-01-27T01:02:47;13.10;;;4.03;;
40827;SDS011;26549;50.918;5.338;2024-01-27T01:05:14;9.50;;;4.60;;
40827;SDS011;26549;50.918;5.338;2024-01-27T01:07:40;8.18;;;3.83;;
40827;SDS011;26549;50.918;5.338;2024-01-27T01:10:06;7.60;;;2.70;;
40827;SDS011;26549;50.918;5.338;2024-01-27T01:12:33;7.85;;;2.40;;
40827;SDS011;26549;50.918;5.338;2024-01-27T01:15:00;10.80;;;2.70;;
40827;SDS011;26549;50.918;5.338;2024-01-27T01:17:25;9.20;;;3.30;;
40827;SDS011;26549;50.918;5.338;2024-01-27T01:19:52;14.10;;;4.07;;
40827;SDS011;26549;50.918;5.338;2024-01-27T01:22:18;14.20;;;4.22;;
40827;SDS011;26549;50.918;5.338;2024-01-27T01:24:44;8.60;;;3.38;;
40827;SDS011;26549;50.918;5.338;2024-01-27T01:27:10;7.45;;;2.88;;
40827;SDS011;26549;50.918;5.338;2024-01-27T01:29:36;7.70;;;3.10;;
40827;SDS011;26549;50.918;5.338;2024-01-27T01:32:02;6.28;;;2.90;;
40827;SDS011;26549;50.918;5.338;2024-01-27T01:34:29;10.45;;;3.67;;
40827;SDS011;26549;50.918;5.338;2024-01-27T01:36:55;7.30;;;2.78;;
40827;SDS011;26549;50.918;5.338;2024-01-27T01:39:23;12.50;;;3.17;;
40827;SDS011;26549;50.918;5.338;2024-01-27T01:41:49;6.25;;;2.88;;
40827;SDS011;26549;50.918;5.338;2024-01-27T01:44:15;10.18;;;3.33;;
40827;SDS011;26549;50.918;5.338;2024-01-27T01:46:41;9.13;;;3.17;;
40827;SDS011;26549;50.918;5.338;2024-01-27T01:49:07;6.13;;;3.35;;
40827;SDS011;26549;50.918;5.338;2024-01-27T01:51:33;9.65;;;3.05;;
40827;SDS011;26549;50.918;5.338;2024-01-27T01:53:59;11.80;;;4.00;;
40827;SDS011;26549;50.918;5.338;2024-01-27T01:56:25;10.52;;;4.60;;
40827;SDS011;26549;50.918;5.338;2024-01-27T01:58:52;10.43;;;3.30;;
40827;SDS011;26549;50.918;5.338;2024-01-27T02:01:19;9.55;;;2.53;;
40827;SDS011;26549;50.918;5.338;2024-01-27T02:03:56;9.95;;;2.63;;
40827;SDS011;26549;50.918;5.338;2024-01-27T02:06:22;6.60;;;2.92;;
40827;SDS011;26549;50.918;5.338;2024-01-27T02:08:48;7.00;;;5.20;;
40827;SDS011;26549;50.918;5.338;2024-01-27T02:11:14;12.10;;;3.05;;
40827;SDS011;26549;50.918;5.338;2024-01-27T02:13:40;8.25;;;2.97;;
40827;SDS011;26549;50.918;5.338;2024-01-27T02:16:06;9.15;;;2.85;;
40827;SDS011;26549;50.918;5.338;2024-01-27T02:18:32;6.78;;;3.05;;
40827;SDS011;26549;50.918;5.338;2024-01-27T02:20:58;8.65;;;2.90;;
40827;SDS011;26549;50.918;5.338;2024-01-27T02:23:24;9.75;;;2.80;;
40827;SDS011;26549;50.918;5.338;2024-01-27T02:25:49;8.40;;;2.65;;
40827;SDS011;26549;50.918;5.338;2024-01-27T02:28:17;9.40;;;3.42;;
40827;SDS011;26549;50.918;5.338;2024-01-27T02:30:43;11.63;;;3.10;;
40827;SDS011;26549;50.918;5.338;2024-01-27T02:33:10;9.82;;;3.83;;
40827;SDS011;26549;50.918;5.338;2024-01-27T02:35:35;8.70;;;2.58;;
40827;SDS011;26549;50.918;5.338;2024-01-27T02:38:01;9.95;;;3.70;;
40827;SDS011;26549;50.918;5.338;2024-01-27T02:40:28;7.38;;;2.97;;
40827;SDS011;26549;50.918;5.338;2024-01-27T02:42:55;10.57;;;3.22;;
40827;SDS011;26549;50.918;5.338;2024-01-27T02:45:21;6.95;;;2.28;;
40827;SDS011;26549;50.918;5.338;2024-01-27T02:47:48;9.90;;;3.35;;
40827;SDS011;26549;50.918;5.338;2024-01-27T02:50:14;10.70;;;4.15;;
40827;SDS011;26549;50.918;5.338;2024-01-27T02:52:40;14.63;;;3.92;;
40827;SDS011;26549;50.918;5.338;2024-01-27T02:55:06;11.88;;;4.45;;
40827;SDS011;26549;50.918;5.338;2024-01-27T02:57:37;9.65;;;4.60;;
40827;SDS011;26549;50.918;5.338;2024-01-27T03:00:03;9.70;;;3.63;;
40827;SDS011;26549;50.918;5.338;2024-01-27T03:02:34;10.05;;;3.47;;
40827;SDS011;26549;50.918;5.338;2024-01-27T03:05:00;10.70;;;3.20;;
40827;SDS011;26549;50.918;5.338;2024-01-27T03:07:27;11.57;;;4.60;;
40827;SDS011;26549;50.918;5.338;2024-01-27T03:09:53;12.57;;;4.22;;
40827;SDS011;26549;50.918;5.338;2024-01-27T03:12:19;11.88;;;4.72;;
40827;SDS011;26549;50.918;5.338;2024-01-27T03:14:45;12.48;;;4.20;;
40827;SDS011;26549;50.918;5.338;2024-01-27T03:17:15;12.80;;;4.72;;
40827;SDS011;26549;50.918;5.338;2024-01-27T03:19:41;8.98;;;4.93;;
40827;SDS011;26549;50.918;5.338;2024-01-27T03:22:07;7.70;;;3.47;;
40827;SDS011;26549;50.918;5.338;2024-01-27T03:24:33;8.80;;;3.92;;
40827;SDS011;26549;50.918;5.338;2024-01-27T03:27:00;8.23;;;3.08;;
40827;SDS011;26549;50.918;5.338;2024-01-27T03:29:26;12.63;;;3.65;;
40827;SDS011;26549;50.918;5.338;2024-01-27T03:31:53;11.35;;;4.35;;
40827;SDS011;26549;50.918;5.338;2024-01-27T03:34:19;8.93;;;4.70;;
40827;SDS011;26549;50.918;5.338;2024-01-27T03:36:50;11.40;;;5.53;;
40827;SDS011;26549;50.918;5.338;2024-01-27T03:39:19;6.47;;;3.22;;
40827;SDS011;26549;50.918;5.338;2024-01-27T03:41:45;8.23;;;2.83;;
40827;SDS011;26549;50.918;5.338;2024-01-27T03:44:10;11.00;;;3.92;;
40827;SDS011;26549;50.918;5.338;2024-01-27T03:46:36;16.13;;;4.22;;
40827;SDS011;26549;50.918;5.338;2024-01-27T03:49:04;10.63;;;4.28;;
40827;SDS011;26549;50.918;5.338;2024-01-27T03:51:32;9.20;;;4.55;;
40827;SDS011;26549;50.918;5.338;2024-01-27T03:53:59;9.65;;;4.03;;
40827;SDS011;26549;50.918;5.338;2024-01-27T03:56:24;16.48;;;4.05;;
40827;SDS011;26549;50.918;5.338;2024-01-27T03:58:51;11.07;;;4.45;;
40827;SDS011;26549;50.918;5.338;2024-01-27T04:01:20;12.70;;;4.18;;
40827;SDS011;26549;50.918;5.338;2024-01-27T04:03:48;11.93;;;4.47;;
40827;SDS011;26549;50.918;5.338;2024-01-27T04:06:19;8.20;;;3.15;;
40827;SDS011;26549;50.918;5.338;2024-01-27T04:08:45;10.02;;;3.97;;
40827;SDS011;26549;50.918;5.338;2024-01-27T04:11:21;8.73;;;3.72;;
40827;SDS011;26549;50.918;5.338;2024-01-27T04:13:48;7.97;;;3.78;;
40827;SDS011;26549;50.918;5.338;2024-01-27T04:16:17;11.48;;;4.50;;
40827;SDS011;26549;50.918;5.338;2024-01-27T04:18:43;15.05;;;5.03;;
40827;SDS011;26549;50.918;5.338;2024-01-27T04:21:09;11.23;;;4.43;;
40827;SDS011;26549;50.918;5.338;2024-01-27T04:23:35;15.52;;;4.97;;
40827;SDS011;26549;50.918;5.338;2024-01-27T04:26:01;12.02;;;3.55;;
40827;SDS011;26549;50.918;5.338;2024-01-27T04:28:27;11.68;;;4.38;;
40827;SDS011;26549;50.918;5.338;2024-01-27T04:30:55;11.20;;;4.18;;
40827;SDS011;26549;50.918;5.338;2024-01-27T04:33:25;12.93;;;6.35;;
40827;SDS011;26549;50.918;5.338;2024-01-27T04:35:51;10.88;;;3.00;;
40827;SDS011;26549;50.918;5.338;2024-01-27T04:38:21;12.20;;;4.43;;
40827;SDS011;26549;50.918;5.338;2024-01-27T04:40:52;11.65;;;4.20;;
40827;SDS011;26549;50.918;5.338;2024-01-27T04:43:18;10.95;;;4.00;;
40827;SDS011;26549;50.918;5.338;2024-01-27T04:45:45;10.93;;;4.45;;
40827;SDS011;26549;50.918;5.338;2024-01-27T04:48:14;8.05;;;4.43;;
40827;SDS011;26549;50.918;5.338;2024-01-27T04:50:40;9.80;;;4.50;;
40827;SDS011;26549;50.918;5.338;2024-01-27T04:53:06;11.88;;;4.15;;
40827;SDS011;26549;50.918;5.338;2024-01-27T04:55:33;9.40;;;4.40;;
40827;SDS011;26549;50.918;5.338;2024-01-27T04:57:59;12.07;;;4.88;;
40827;SDS011;26549;50.918;5.338;2024-01-27T05:00:25;8.50;;;3.78;;
40827;SDS011;26549;50.918;5.338;2024-01-27T05:02:56;7.78;;;4.22;;
40827;SDS011;26549;50.918;5.338;2024-01-27T05:05:27;11.80;;;3.50;;
40827;SDS011;26549;50.918;5.338;2024-01-27T05:07:53;11.55;;;4.82;;
40827;SDS011;26549;50.918;5.338;2024-01-27T05:10:19;12.95;;;4.80;;
40827;SDS011;26549;50.918;5.338;2024-01-27T05:12:47;18.50;;;6.13;;
40827;SDS011;26549;50.918;5.338;2024-01-27T05:15:13;12.60;;;4.45;;
40827;SDS011;26549;50.918;5.338;2024-01-27T05:17:39;10.27;;;4.78;;
40827;SDS011;26549;50.918;5.338;2024-01-27T05:20:07;9.75;;;3.72;;
40827;SDS011;26549;50.918;5.338;2024-01-27T05:22:33;12.43;;;3.80;;
40827;SDS011;26549;50.918;5.338;2024-01-27T05:24:59;12.75;;;3.85;;
40827;SDS011;26549;50.918;5.338;2024-01-27T05:27:25;14.32;;;4.65;;
40827;SDS011;26549;50.918;5.338;2024-01-27T05:29:58;9.75;;;4.15;;
40827;SDS011;26549;50.918;5.338;2024-01-27T05:32:27;9.75;;;3.58;;
40827;SDS011;26549;50.918;5.338;2024-01-27T05:34:55;13.32;;;4.55;;
40827;SDS011;26549;50.918;5.338;2024-01-27T05:37:23;15.38;;;5.13;;
40827;SDS011;26549;50.918;5.338;2024-01-27T05:39:49;13.05;;;4.18;;
40827;SDS011;26549;50.918;5.338;2024-01-27T05:42:15;14.07;;;5.60;;
40827;SDS011;26549;50.918;5.338;2024-01-27T05:44:46;9.60;;;5.05;;
40827;SDS011;26549;50.918;5.338;2024-01-27T05:47:12;13.50;;;4.47;;
40827;SDS011;26549;50.918;5.338;2024-01-27T05:49:38;13.90;;;5.60;;
40827;SDS011;26549;50.918;5.338;2024-01-27T05:52:04;7.28;;;3.25;;
40827;SDS011;26549;50.918;5.338;2024-01-27T05:54:32;8.32;;;3.65;;
40827;SDS011;26549;50.918;5.338;2024-01-27T05:57:03;19.10;;;4.63;;
40827;SDS011;26549;50.918;5.338;2024-01-27T05:59:31;11.82;;;4.45;;
40827;SDS011;26549;50.918;5.338;2024-01-27T06:01:58;14.25;;;4.60;;
40827;SDS011;26549;50.918;5.338;2024-01-27T06:04:28;6.82;;;4.00;;
40827;SDS011;26549;50.918;5.338;2024-01-27T06:06:56;13.55;;;5.47;;
40827;SDS011;26549;50.918;5.338;2024-01-27T06:09:25;9.20;;;4.72;;
40827;SDS011;26549;50.918;5.338;2024-01-27T06:11:50;7.13;;;4.22;;
40827;SDS011;26549;50.918;5.338;2024-01-27T06:14:16;9.95;;;3.63;;
40827;SDS011;26549;50.918;5.338;2024-01-27T06:16:47;11.85;;;3.92;;
40827;SDS011;26549;50.918;5.338;2024-01-27T06:19:13;13.13;;;3.42;;
40827;SDS011;26549;50.918;5.338;2024-01-27T06:21:38;10.70;;;5.20;;
40827;SDS011;26549;50.918;5.338;2024-01-27T06:24:09;9.45;;;4.57;;
40827;SDS011;26549;50.918;5.338;2024-01-27T06:26:35;11.93;;;5.53;;
40827;SDS011;26549;50.918;5.338;2024-01-27T06:29:01;10.43;;;4.78;;
40827;SDS011;26549;50.918;5.338;2024-01-27T06:31:27;12.13;;;5.50;;
40827;SDS011;26549;50.918;5.338;2024-01-27T06:33:53;16.90;;;6.15;;
40827;SDS011;26549;50.918;5.338;2024-01-27T06:36:19;6.78;;;3.95;;
40827;SDS011;26549;50.918;5.338;2024-01-27T06:38:49;10.85;;;3.90;;
40827;SDS011;26549;50.918;5.338;2024-01-27T06:41:14;13.82;;;3.75;;
40827;SDS011;26549;50.918;5.338;2024-01-27T06:43:42;9.45;;;4.05;;
40827;SDS011;26549;50.918;5.338;2024-01-27T06:46:08;10.48;;;4.35;;
40827;SDS011;26549;50.918;5.338;2024-01-27T06:48:34;9.75;;;4.95;;
40827;SDS011;26549;50.918;5.338;2024-01-27T06:51:00;10.10;;;4.82;;
40827;SDS011;26549;50.918;5.338;2024-01-27T06:53:26;12.13;;;5.50;;
40827;SDS011;26549;50.918;5.338;2024-01-27T06:55:51;11.18;;;4.50;;
40827;SDS011;26549;50.918;5.338;2024-01-27T06:58:17;14.80;;;4.53;;
40827;SDS011;26549;50.918;5.338;2024-01-27T07:00:43;12.07;;;6.07;;
40827;SDS011;26549;50.918;5.338;2024-01-27T07:03:10;12.55;;;5.22;;
40827;SDS011;26549;50.918;5.338;2024-01-27T07:05:39;13.68;;;5.82;;
40827;SDS011;26549;50.918;5.338;2024-01-27T07:08:09;10.98;;;3.97;;
40827;SDS011;26549;50.918;5.338;2024-01-27T07:10:37;10.65;;;4.15;;
40827;SDS011;26549;50.918;5.338;2024-01-27T07:13:04;11.65;;;5.32;;
40827;SDS011;26549;50.918;5.338;2024-01-27T07:15:31;9.52;;;4.55;;
40827;SDS011;26549;50.918;5.338;2024-01-27T07:17:57;10.80;;;3.95;;
40827;SDS011;26549;50.918;5.338;2024-01-27T07:20:23;15.95;;;4.60;;
40827;SDS011;26549;50.918;5.338;2024-01-27T07:22:49;11.18;;;5.28;;
40827;SDS011;26549;50.918;5.338;2024-01-27T07:25:16;10.20;;;4.53;;
40827;SDS011;26549;50.918;5.338;2024-01-27T07:27:42;16.08;;;4.18;;
40827;SDS011;26549;50.918;5.338;2024-01-27T07:30:07;16.02;;;6.03;;
40827;SDS011;26549;50.918;5.338;2024-01-27T07:32:34;12.15;;;4.28;;
40827;SDS011;26549;50.918;5.338;2024-01-27T07:37:30;18.80;;;5.30;;
40827;SDS011;26549;50.918;5.338;2024-01-27T07:39:56;16.10;;;4.55;;
40827;SDS011;26549;50.918;5.338;2024-01-27T07:42:22;14.85;;;5.05;;
40827;SDS011;26549;50.918;5.338;2024-01-27T07:44:48;12.85;;;5.80;;
40827;SDS011;26549;50.918;5.338;2024-01-27T07:47:14;10.93;;;3.90;;
40827;SDS011;26549;50.918;5.338;2024-01-27T07:49:40;12.55;;;4.50;;
40827;SDS011;26549;50.918;5.338;2024-01-27T07:52:06;7.70;;;3.92;;
40827;SDS011;26549;50.918;5.338;2024-01-27T07:54:33;12.90;;;4.40;;
40827;SDS011;26549;50.918;5.338;2024-01-27T07:57:03;15.00;;;3.97;;
40827;SDS011;26549;50.918;5.338;2024-01-27T07:59:32;7.25;;;3.80;;
40827;SDS011;26549;50.918;5.338;2024-01-27T08:01:58;7.45;;;3.30;;
40827;SDS011;26549;50.918;5.338;2024-01-27T08:04:24;6.07;;;3.45;;
40827;SDS011;26549;50.918;5.338;2024-01-27T08:06:50;9.65;;;3.83;;
40827;SDS011;26549;50.918;5.338;2024-01-27T08:09:17;10.10;;;3.92;;
40827;SDS011;26549;50.918;5.338;2024-01-27T08:11:44;7.03;;;3.95;;
40827;SDS011;26549;50.918;5.338;2024-01-27T08:14:10;7.13;;;2.97;;
40827;SDS011;26549;50.918;5.338;2024-01-27T08:16:37;8.75;;;3.58;;
40827;SDS011;26549;50.918;5.338;2024-01-27T08:19:02;7.55;;;3.17;;
40827;SDS011;26549;50.918;5.338;2024-01-27T08:21:29;11.85;;;3.85;;
40827;SDS011;26549;50.918;5.338;2024-01-27T08:23:56;13.35;;;4.57;;
40827;SDS011;26549;50.918;5.338;2024-01-27T08:26:24;14.07;;;3.80;;
40827;SDS011;26549;50.918;5.338;2024-01-27T08:28:51;9.38;;;3.53;;
40827;SDS011;26549;50.918;5.338;2024-01-27T08:31:19;6.50;;;3.92;;
40827;SDS011;26549;50.918;5.338;2024-01-27T08:33:46;12.65;;;4.57;;
40827;SDS011;26549;50.918;5.338;2024-01-27T08:36:14;10.73;;;3.40;;
40827;SDS011;26549;50.918;5.338;2024-01-27T08:38:40;9.43;;;3.10;;
40827;SDS011;26549;50.918;5.338;2024-01-27T08:41:06;11.02;;;4.22;;
40827;SDS011;26549;50.918;5.338;2024-01-27T08:46:01;6.85;;;3.53;;
40827;SDS011;26549;50.918;5.338;2024-01-27T08:48:28;8.43;;;4.85;;
40827;SDS011;26549;50.918;5.338;2024-01-27T08:50:54;7.90;;;3.08;;
40827;SDS011;26549;50.918;5.338;2024-01-27T08:53:20;11.20;;;3.55;;
40827;SDS011;26549;50.918;5.338;2024-01-27T08:55:49;8.68;;;3.17;;
40827;SDS011;26549;50.918;5.338;2024-01-27T08:58:15;5.60;;;3.08;;
40827;SDS011;26549;50.918;5.338;2024-01-27T09:00:41;6.72;;;3.38;;
40827;SDS011;26549;50.918;5.338;2024-01-27T09:03:06;11.98;;;3.60;;
40827;SDS011;26549;50.918;5.338;2024-01-27T09:05:32;8.57;;;3.80;;
40827;SDS011;26549;50.918;5.338;2024-01-27T09:07:59;10.80;;;4.63;;
40827;SDS011;26549;50.918;5.338;2024-01-27T09:10:25;10.38;;;4.32;;
40827;SDS011;26549;50.918;5.338;2024-01-27T09:12:52;17.80;;;5.68;;
40827;SDS011;26549;50.918;5.338;2024-01-27T09:15:18;7.32;;;3.15;;
40827;SDS011;26549;50.918;5.338;2024-01-27T09:17:44;9.23;;;3.25;;
40827;SDS011;26549;50.918;5.338;2024-01-27T09:20:11;14.30;;;4.47;;
40827;SDS011;26549;50.918;5.338;2024-01-27T09:22:37;7.50;;;4.07;;
40827;SDS011;26549;50.918;5.338;2024-01-27T09:25:02;17.92;;;5.82;;
40827;SDS011;26549;50.918;5.338;2024-01-27T09:27:28;12.45;;;5.57;;
40827;SDS011;26549;50.918;5.338;2024-01-27T09:29:54;10.65;;;3.70;;
40827;SDS011;26549;50.918;5.338;2024-01-27T09:32:20;13.00;;;3.70;;
40827;SDS011;26549;50.918;5.338;2024-01-27T09:34:45;10.30;;;4.03;;
40827;SDS011;26549;50.918;5.338;2024-01-27T09:37:11;10.45;;;4.20;;
40827;SDS011;26549;50.918;5.338;2024-01-27T09:39:37;12.48;;;3.38;;
40827;SDS011;26549;50.918;5.338;2024-01-27T09:42:04;8.65;;;3.50;;
40827;SDS011;26549;50.918;5.338;2024-01-27T09:44:32;9.95;;;3.08;;
40827;SDS011;26549;50.918;5.338;2024-01-27T09:47:00;7.38;;;2.83;;
40827;SDS011;26549;50.918;5.338;2024-01-27T09:49:27;5.80;;;3.40;;
40827;SDS011;26549;50.918;5.338;2024-01-27T09:51:55;10.77;;;4.07;;
40827;SDS011;26549;50.918;5.338;2024-01-27T09:54:22;8.68;;;3.20;;
40827;SDS011;26549;50.918;5.338;2024-01-27T09:56:47;10.15;;;3.80;;
40827;SDS011;26549;50.918;5.338;2024-01-27T09:59:15;8.90;;;3.47;;
40827;SDS011;26549;50.918;5.338;2024-01-27T10:01:44;5.55;;;2.60;;
40827;SDS011;26549;50.918;5.338;2024-01-27T10:04:10;6.70;;;2.72;;
40827;SDS011;26549;50.918;5.338;2024-01-27T10:06:37;9.13;;;3.15;;
40827;SDS011;26549;50.918;5.338;2024-01-27T10:09:02;7.75;;;3.38;;
40827;SDS011;26549;50.918;5.338;2024-01-27T10:11:29;8.27;;;2.75;;
40827;SDS011;26549;50.918;5.338;2024-01-27T10:13:58;7.05;;;2.50;;
40827;SDS011;26549;50.918;5.338;2024-01-27T10:16:25;9.23;;;3.67;;
40827;SDS011;26549;50.918;5.338;2024-01-27T10:19:01;6.15;;;2.50;;
40827;SDS011;26549;50.918;5.338;2024-01-27T10:21:27;5.72;;;3.08;;
40827;SDS011;26549;50.918;5.338;2024-01-27T10:23:53;5.78;;;3.15;;
40827;SDS011;26549;50.918;5.338;2024-01-27T10:26:19;10.77;;;3.85;;
40827;SDS011;26549;50.918;5.338;2024-01-27T10:28:55;5.20;;;2.50;;
40827;SDS011;26549;50.918;5.338;2024-01-27T10:31:25;5.80;;;2.17;;
40827;SDS011;26549;50.918;5.338;2024-01-27T10:33:52;6.53;;;2.28;;
40827;SDS011;26549;50.918;5.338;2024-01-27T10:36:19;7.75;;;2.95;;
40827;SDS011;26549;50.918;5.338;2024-01-27T10:38:45;13.82;;;3.28;;
40827;SDS011;26549;50.918;5.338;2024-01-27T10:41:10;10.43;;;2.45;;
40827;SDS011;26549;50.918;5.338;2024-01-27T10:43:38;11.55;;;3.97;;
40827;SDS011;26549;50.918;5.338;2024-01-27T10:46:05;11.90;;;2.85;;
40827;SDS011;26549;50.918;5.338;2024-01-27T10:48:35;7.47;;;2.85;;
40827;SDS011;26549;50.918;5.338;2024-01-27T10:51:03;5.13;;;2.75;;
40827;SDS011;26549;50.918;5.338;2024-01-27T10:53:35;11.10;;;2.60;;
40827;SDS011;26549;50.918;5.338;2024-01-27T10:56:03;4.40;;;2.35;;
40827;SDS011;26549;50.918;5.338;2024-01-27T10:58:34;5.80;;;2.70;;
40827;SDS011;26549;50.918;5.338;2024-01-27T11:01:09;8.05;;;2.45;;
40827;SDS011;26549;50.918;5.338;2024-01-27T11:03:40;6.25;;;2.38;;
40827;SDS011;26549;50.918;5.338;2024-01-27T11:06:06;6.82;;;2.33;;
40827;SDS011;26549;50.918;5.338;2024-01-27T11:08:33;6.28;;;1.85;;
40827;SDS011;26549;50.918;5.338;2024-01-27T11:10:59;11.05;;;2.90;;
40827;SDS011;26549;50.918;5.338;2024-01-27T11:13:30;8.27;;;2.70;;
40827;SDS011;26549;50.918;5.338;2024-01-27T11:15:57;6.75;;;2.83;;
40827;SDS011;26549;50.918;5.338;2024-01-27T11:18:26;9.43;;;2.22;;
40827;SDS011;26549;50.918;5.338;2024-01-27T11:20:55;7.05;;;2.75;;
40827;SDS011;26549;50.918;5.338;2024-01-27T11:23:32;5.95;;;2.75;;
40827;SDS011;26549;50.918;5.338;2024-01-27T11:26:06;8.38;;;2.65;;
40827;SDS011;26549;50.918;5.338;2024-01-27T11:28:32;8.90;;;2.42;;
40827;SDS011;26549;50.918;5.338;2024-01-27T11:31:02;9.40;;;2.17;;
40827;SDS011;26549;50.918;5.338;2024-01-27T11:33:29;4.72;;;1.90;;
40827;SDS011;26549;50.918;5.338;2024-01-27T11:36:04;6.95;;;2.67;;
40827;SDS011;26549;50.918;5.338;2024-01-27T11:40:57;11.05;;;3.92;;
40827;SDS011;26549;50.918;5.338;2024-01-27T11:43:24;5.95;;;1.88;;
40827;SDS011;26549;50.918;5.338;2024-01-27T11:46:00;6.65;;;2.13;;
40827;SDS011;26549;50.918;5.338;2024-01-27T11:48:27;3.38;;;2.10;;
40827;SDS011;26549;50.918;5.338;2024-01-27T11:51:05;7.28;;;2.03;;
40827;SDS011;26549;50.918;5.338;2024-01-27T11:53:36;5.80;;;2.17;;
40827;SDS011;26549;50.918;5.338;2024-01-27T11:56:05;4.40;;;1.58;;
40827;SDS011;26549;50.918;5.338;2024-01-27T11:58:32;5.47;;;1.92;;
40827;SDS011;26549;50.918;5.338;2024-01-27T12:00:58;4.75;;;1.98;;
40827;SDS011;26549;50.918;5.338;2024-01-27T12:03:24;11.93;;;1.65;;
40827;SDS011;26549;50.918;5.338;2024-01-27T12:05:50;7.22;;;1.42;;
40827;SDS011;26549;50.918;5.338;2024-01-27T12:08:17;4.88;;;1.52;;
40827;SDS011;26549;50.918;5.338;2024-01-27T12:10:42;4.97;;;2.65;;
40827;SDS011;26549;50.918;5.338;2024-01-27T12:13:08;8.68;;;2.15;;
40827;SDS011;26549;50.918;5.338;2024-01-27T12:15:36;6.65;;;2.65;;
40827;SDS011;26549;50.918;5.338;2024-01-27T12:18:04;3.83;;;1.25;;
40827;SDS011;26549;50.918;5.338;2024-01-27T12:20:30;6.85;;;2.00;;
40827;SDS011;26549;50.918;5.338;2024-01-27T12:23:05;6.30;;;1.92;;
40827;SDS011;26549;50.918;5.338;2024-01-27T12:25:33;9.95;;;2.53;;
40827;SDS011;26549;50.918;5.338;2024-01-27T12:28:03;4.22;;;1.63;;
40827;SDS011;26549;50.918;5.338;2024-01-27T12:30:33;10.52;;;2.67;;
40827;SDS011;26549;50.918;5.338;2024-01-27T12:33:01;4.38;;;2.70;;
40827;SDS011;26549;50.918;5.338;2024-01-27T12:35:37;10.38;;;2.65;;
40827;SDS011;26549;50.918;5.338;2024-01-27T12:38:05;8.23;;;2.70;;
40827;SDS011;26549;50.918;5.338;2024-01-27T12:40:31;8.80;;;1.70;;
40827;SDS011;26549;50.918;5.338;2024-01-27T12:42:57;2.33;;;1.95;;
40827;SDS011;26549;50.918;5.338;2024-01-27T12:45:24;7.18;;;1.13;;
40827;SDS011;26549;50.918;5.338;2024-01-27T12:47:50;6.97;;;1.60;;
40827;SDS011;26549;50.918;5.338;2024-01-27T12:50:16;6.35;;;3.15;;
40827;SDS011;26549;50.918;5.338;2024-01-27T12:52:41;5.32;;;1.00;;
40827;SDS011;26549;50.918;5.338;2024-01-27T12:55:07;11.20;;;2.33;;
40827;SDS011;26549;50.918;5.338;2024-01-27T12:57:33;4.65;;;1.17;;
40827;SDS011;26549;50.918;5.338;2024-01-27T13:00:00;2.33;;;1.02;;
40827;SDS011;26549;50.918;5.338;2024-01-27T13:02:25;5.75;;;2.25;;
40827;SDS011;26549;50.918;5.338;2024-01-27T13:04:51;7.38;;;2.00;;
40827;SDS011;26549;50.918;5.338;2024-01-27T13:07:17;8.70;;;2.63;;
40827;SDS011;26549;50.918;5.338;2024-01-27T13:09:43;3.17;;;1.33;;
40827;SDS011;26549;50.918;5.338;2024-01-27T13:12:10;5.68;;;1.17;;
40827;SDS011;26549;50.918;5.338;2024-01-27T13:14:36;3.88;;;1.10;;
40827;SDS011;26549;50.918;5.338;2024-01-27T13:17:12;6.72;;;1.40;;
40827;SDS011;26549;50.918;5.338;2024-01-27T13:19:39;8.27;;;1.58;;
40827;SDS011;26549;50.918;5.338;2024-01-27T13:22:06;6.78;;;1.45;;
40827;SDS011;26549;50.918;5.338;2024-01-27T13:24:32;7.47;;;1.83;;
40827;SDS011;26549;50.918;5.338;2024-01-27T13:26:58;6.75;;;1.92;;
40827;SDS011;26549;50.918;5.338;2024-01-27T13:29:25;9.50;;;1.83;;
40827;SDS011;26549;50.918;5.338;2024-01-27T13:31:52;7.30;;;2.50;;
40827;SDS011;26549;50.918;5.338;2024-01-27T13:34:18;6.68;;;1.50;;
40827;SDS011;26549;50.918;5.338;2024-01-27T13:36:43;4.75;;;2.55;;
40827;SDS011;26549;50.918;5.338;2024-01-27T13:39:09;8.52;;;1.95;;
40827;SDS011;26549;50.918;5.338;2024-01-27T13:41:37;14.48;;;3.40;;
40827;SDS011;26549;50.918;5.338;2024-01-27T13:44:03;8.63;;;2.15;;
40827;SDS011;26549;50.918;5.338;2024-01-27T13:46:31;4.80;;;2.88;;
40827;SDS011;26549;50.918;5.338;2024-01-27T13:48:56;9.50;;;1.98;;
40827;SDS011;26549;50.918;5.338;2024-01-27T13:51:22;5.88;;;1.83;;
40827;SDS011;26549;50.918;5.338;2024-01-27T13:53:49;10.27;;;2.60;;
40827;SDS011;26549;50.918;5.338;2024-01-27T13:56:15;5.57;;;1.70;;
40827;SDS011;26549;50.918;5.338;2024-01-27T13:58:41;6.38;;;1.85;;
40827;SDS011;26549;50.918;5.338;2024-01-27T14:01:07;5.15;;;1.73;;
40827;SDS011;26549;50.918;5.338;2024-01-27T14:03:35;10.82;;;2.75;;
40827;SDS011;26549;50.918;5.338;2024-01-27T14:06:02;6.03;;;1.65;;
40827;SDS011;26549;50.918;5.338;2024-01-27T14:08:28;4.25;;;1.20;;
40827;SDS011;26549;50.918;5.338;2024-01-27T14:10:54;4.47;;;2.05;;
40827;SDS011;26549;50.918;5.338;2024-01-27T14:13:19;7.50;;;2.05;;
40827;SDS011;26549;50.918;5.338;2024-01-27T14:15:48;3.90;;;2.35;;
40827;SDS011;26549;50.918;5.338;2024-01-27T14:18:14;10.98;;;2.60;;
40827;SDS011;26549;50.918;5.338;2024-01-27T14:20:46;8.18;;;2.03;;
40827;SDS011;26549;50.918;5.338;2024-01-27T14:23:13;9.10;;;2.40;;
40827;SDS011;26549;50.918;5.338;2024-01-27T14:25:39;5.25;;;1.38;;
40827;SDS011;26549;50.918;5.338;2024-01-27T14:28:06;9.15;;;2.30;;
40827;SDS011;26549;50.918;5.338;2024-01-27T14:30:34;7.82;;;1.98;;
40827;SDS011;26549;50.918;5.338;2024-01-27T14:33:00;6.07;;;1.42;;
40827;SDS011;26549;50.918;5.338;2024-01-27T14:35:25;6.45;;;1.60;;
40827;SDS011;26549;50.918;5.338;2024-01-27T14:37:52;6.03;;;2.40;;
40827;SDS011;26549;50.918;5.338;2024-01-27T14:40:19;5.20;;;1.35;;
40827;SDS011;26549;50.918;5.338;2024-01-27T14:42:46;8.23;;;2.55;;
40827;SDS011;26549;50.918;5.338;2024-01-27T14:45:12;13.00;;;3.08;;
40827;SDS011;26549;50.918;5.338;2024-01-27T14:47:41;7.03;;;1.50;;